Private Wetterstation Wechselburg
Wetterdaten: Sonntag, 19.02.2017
Datum Zeit Temp. +2m Bodentemp. Temp.+5cm Temp. Wind Windchill X Diff Temp. Feuchte +2m Feuchte +5cm Sonnenschein Luftdruck Regen Wind Richtung Richtung Sonnenschein Taupunkt Windchill Windben
19.02.2017 00:00 0,9 C 1,1 C 1,8 C 2,3 C 2,3 C 1,4 C 87 % 75 % 0 % 1026,3 hPa 0,0 l/m 0,0 km/h (0 Bft) SW 225 0 min -1,0 C 2,3 C 0,0 km/h (0 Bft)
19.02.2017 00:05 0,8 C 1,1 C 1,9 C 2,3 C 2,3 C 1,5 C 87 % 75 % 0 % 1026,3 hPa 0,0 l/m 0,0 km/h (0 Bft) SW 225 0 min -1,1 C 2,3 C 1,9 km/h (1 Bft)
19.02.2017 00:10 0,8 C 1,1 C 1,9 C 2,3 C 2,3 C 1,5 C 87 % 75 % 0 % 1026,3 hPa 0,0 l/m 0,3 km/h (0 Bft) SO 135 0 min -1,1 C 2,3 C 2,4 km/h (1 Bft)
19.02.2017 00:15 0,8 C 1,1 C 2,0 C 2,4 C 2,4 C 1,6 C 88 % 75 % 0 % 1026,3 hPa 0,0 l/m 0,6 km/h (0 Bft) O 90 0 min -1,0 C 2,4 C 3,2 km/h (1 Bft)
19.02.2017 00:20 0,8 C 1,1 C 1,9 C 2,4 C 2,4 C 1,6 C 88 % 75 % 0 % 1026,3 hPa 0,0 l/m 0,5 km/h (0 Bft) SO 135 0 min -1,0 C 2,4 C 0,0 km/h (0 Bft)
19.02.2017 00:25 0,8 C 1,1 C 1,9 C 2,3 C 2,3 C 1,5 C 87 % 75 % 0 % 1026,3 hPa 0,0 l/m 0,0 km/h (0 Bft) W-NW 292 0 min -1,1 C 2,3 C 0,0 km/h (0 Bft)
19.02.2017 00:30 0,8 C 1,1 C 1,9 C 2,2 C 2,2 C 1,4 C 87 % 75 % 0 % 1026,3 hPa 0,0 l/m 0,0 km/h (0 Bft) W-NW 292 0 min -1,1 C 2,2 C 0,0 km/h (0 Bft)
19.02.2017 00:35 0,9 C 1,1 C 1,7 C 2,0 C 2,0 C 1,1 C 87 % 75 % 0 % 1026,3 hPa 0,0 l/m 0,0 km/h (0 Bft) W 270 0 min -1,0 C 2,0 C 0,0 km/h (0 Bft)
19.02.2017 00:40 0,8 C 1,1 C 1,7 C 2,0 C 2,0 C 1,2 C 87 % 75 % 0 % 1026,3 hPa 0,0 l/m 0,0 km/h (0 Bft) W 270 0 min -1,1 C 2,0 C 0,0 km/h (0 Bft)
19.02.2017 00:45 0,8 C 1,1 C 1,6 C 2,0 C 2,0 C 1,2 C 87 % 75 % 0 % 1026,3 hPa 0,0 l/m 0,0 km/h (0 Bft) O-NO 67 0 min -1,1 C 2,0 C 0,0 km/h (0 Bft)
19.02.2017 00:50 0,8 C 1,1 C 1,7 C 2,0 C 2,0 C 1,2 C 87 % 75 % 0 % 1026,3 hPa 0,0 l/m 0,0 km/h (0 Bft) O-NO 67 0 min -1,1 C 2,0 C 0,0 km/h (0 Bft)
19.02.2017 00:55 0,7 C 1,1 C 1,6 C 2,0 C 2,0 C 1,3 C 87 % 75 % 0 % 1025,8 hPa 0,0 l/m 0,0 km/h (0 Bft) W 270 0 min -1,2 C 2,0 C 0,0 km/h (0 Bft)
19.02.2017 01:00 0,6 C 1,1 C 1,5 C 1,9 C 1,9 C 1,3 C 87 % 75 % 0 % 1025,8 hPa 0,0 l/m 0,0 km/h (0 Bft) W-NW 292 0 min -1,3 C 1,9 C 0,0 km/h (0 Bft)
19.02.2017 01:05 0,6 C 1,1 C 1,5 C 1,9 C 1,9 C 1,3 C 87 % 75 % 0 % 1025,8 hPa 0,0 l/m 0,0 km/h (0 Bft) NO 45 0 min -1,3 C 1,9 C 0,0 km/h (0 Bft)
19.02.2017 01:10 0,7 C 1,1 C 1,5 C 1,8 C 1,8 C 1,1 C 87 % 75 % 0 % 1025,8 hPa 0,0 l/m 0,0 km/h (0 Bft) NO 45 0 min -1,2 C 1,8 C 0,0 km/h (0 Bft)
19.02.2017 01:15 0,7 C 1,1 C 1,4 C 1,8 C 1,8 C 1,1 C 87 % 75 % 0 % 1025,8 hPa 0,0 l/m 0,0 km/h (0 Bft) N-NO 22 0 min -1,2 C 1,8 C 0,0 km/h (0 Bft)
19.02.2017 01:20 0,5 C 1,1 C 1,4 C 1,6 C 1,6 C 1,1 C 87 % 75 % 0 % 1025,8 hPa 0,0 l/m 0,0 km/h (0 Bft) O 90 0 min -1,4 C 1,6 C 0,0 km/h (0 Bft)
19.02.2017 01:25 0,4 C 1,3 C 1,2 C 1,6 C 1,6 C 1,2 C 87 % 75 % 0 % 1025,8 hPa 0,0 l/m 0,0 km/h (0 Bft) O-NO 67 0 min -1,5 C 1,6 C 0,0 km/h (0 Bft)
19.02.2017 01:30 0,4 C 1,1 C 1,1 C 1,4 C 1,4 C 1,0 C 87 % 75 % 0 % 1025,8 hPa 0,0 l/m 0,0 km/h (0 Bft) O-NO 67 0 min -1,5 C 1,4 C 0,0 km/h (0 Bft)
19.02.2017 01:35 0,4 C 1,3 C 1,0 C 1,3 C 1,3 C 0,9 C 87 % 75 % 0 % 1025,9 hPa 0,0 l/m 0,0 km/h (0 Bft) O 90 0 min -1,5 C 1,3 C 0,0 km/h (0 Bft)
19.02.2017 01:40 0,4 C 1,3 C 1,1 C 1,2 C 1,2 C 0,8 C 87 % 75 % 0 % 1025,9 hPa 0,0 l/m 0,0 km/h (0 Bft) O-NO 67 0 min -1,5 C 1,2 C 0,0 km/h (0 Bft)
19.02.2017 01:45 0,3 C 1,1 C 0,8 C 1,0 C 1,0 C 0,7 C 87 % 75 % 0 % 1025,9 hPa 0,0 l/m 0,2 km/h (0 Bft) S-SW 202 0 min -1,6 C 1,0 C 2,9 km/h (1 Bft)
19.02.2017 01:50 0,3 C 1,1 C 0,8 C 1,0 C 1,0 C 0,7 C 87 % 75 % 0 % 1025,9 hPa 0,0 l/m 0,2 km/h (0 Bft) O 90 0 min -1,6 C 1,0 C 0,0 km/h (0 Bft)
19.02.2017 01:55 0,3 C 1,1 C 0,9 C 0,9 C 0,9 C 0,6 C 88 % 75 % 0 % 1025,5 hPa 0,0 l/m 0,2 km/h (0 Bft) W 270 0 min -1,4 C 0,9 C 0,0 km/h (0 Bft)
19.02.2017 02:00 0,3 C 1,1 C 0,8 C 0,8 C 0,8 C 0,5 C 88 % 75 % 0 % 1025,5 hPa 0,0 l/m 0,0 km/h (0 Bft) W-NW 292 0 min -1,4 C 0,8 C 0,0 km/h (0 Bft)
19.02.2017 02:05 0,1 C 1,3 C 0,6 C 0,6 C 0,6 C 0,5 C 88 % 75 % 0 % 1025,5 hPa 0,0 l/m 0,0 km/h (0 Bft) O 90 0 min -1,6 C 0,6 C 0,0 km/h (0 Bft)
19.02.2017 02:10 0,1 C 1,2 C 0,6 C 0,5 C 0,5 C 0,4 C 87 % 75 % 0 % 1025,5 hPa 0,0 l/m 0,0 km/h (0 Bft) NW 315 0 min -1,8 C 0,5 C 0,0 km/h (0 Bft)
19.02.2017 02:15 0,0 C 1,3 C 0,5 C 0,3 C 0,3 C 0,3 C 87 % 76 % 0 % 1025,7 hPa 0,0 l/m 0,0 km/h (0 Bft) O-SO 112 0 min -1,9 C 0,3 C 0,0 km/h (0 Bft)
19.02.2017 02:20 -0,1 C 1,3 C 0,4 C 0,3 C 0,3 C 0,4 C 87 % 76 % 0 % 1025,7 hPa 0,0 l/m 0,0 km/h (0 Bft) O-SO 112 0 min -2,0 C 0,3 C 0,0 km/h (0 Bft)
19.02.2017 02:25 -0,1 C 1,3 C 0,3 C 0,2 C 0,2 C 0,3 C 88 % 76 % 0 % 1025,7 hPa 0,0 l/m 0,0 km/h (0 Bft) W-SW 247 0 min -1,8 C 0,2 C 0,0 km/h (0 Bft)
19.02.2017 02:30 -0,1 C 1,3 C 0,3 C 0,1 C 0,1 C 0,2 C 87 % 76 % 0 % 1025,7 hPa 0,0 l/m 0,0 km/h (0 Bft) O-SO 112 0 min -2,0 C 0,1 C 0,0 km/h (0 Bft)
19.02.2017 02:35 -0,3 C 1,3 C 0,3 C 0,1 C 0,1 C 0,4 C 87 % 76 % 0 % 1025,8 hPa 0,0 l/m 0,0 km/h (0 Bft) O-NO 67 0 min -2,2 C 0,1 C 0,0 km/h (0 Bft)
19.02.2017 02:40 -0,3 C 1,3 C 0,4 C 0,2 C 0,2 C 0,5 C 88 % 76 % 0 % 1025,8 hPa 0,0 l/m 0,0 km/h (0 Bft) S 180 0 min -2,0 C 0,2 C 0,0 km/h (0 Bft)
19.02.2017 02:45 -0,3 C 1,3 C 0,4 C 0,3 C 0,3 C 0,6 C 88 % 76 % 0 % 1025,8 hPa 0,0 l/m 0,0 km/h (0 Bft) S 180 0 min -2,0 C 0,3 C 0,0 km/h (0 Bft)
19.02.2017 02:50 -0,3 C 1,2 C 0,4 C 0,4 C 0,4 C 0,7 C 88 % 76 % 0 % 1025,8 hPa 0,0 l/m 0,2 km/h (0 Bft) S 180 0 min -2,0 C 0,4 C 0,0 km/h (0 Bft)
19.02.2017 02:55 -0,3 C 1,2 C 0,7 C 0,6 C 0,6 C 0,9 C 88 % 76 % 0 % 1025,8 hPa 0,0 l/m 0,2 km/h (0 Bft) W-SW 247 0 min -2,0 C 0,6 C 0,0 km/h (0 Bft)
19.02.2017 03:00 -0,1 C 1,2 C 0,7 C 0,7 C 0,7 C 0,8 C 88 % 76 % 0 % 1025,8 hPa 0,0 l/m 0,0 km/h (0 Bft) NO 45 0 min -1,8 C 0,7 C 0,0 km/h (0 Bft)
19.02.2017 03:05 -0,2 C 1,2 C 0,7 C 0,8 C 0,8 C 1,0 C 88 % 76 % 0 % 1025,8 hPa 0,0 l/m 0,0 km/h (0 Bft) O-SO 112 0 min -1,9 C 0,8 C 0,0 km/h (0 Bft)
19.02.2017 03:10 -0,1 C 1,3 C 0,6 C 0,8 C 0,8 C 0,9 C 88 % 76 % 0 % 1025,8 hPa 0,0 l/m 0,0 km/h (0 Bft) O-NO 67 0 min -1,8 C 0,8 C 0,0 km/h (0 Bft)
19.02.2017 03:15 -0,1 C 1,2 C 0,7 C 0,9 C 0,9 C 1,0 C 88 % 76 % 0 % 1025,8 hPa 0,0 l/m 0,0 km/h (0 Bft) W 270 0 min -1,8 C 0,9 C 0,0 km/h (0 Bft)
19.02.2017 03:20 -0,1 C 1,3 C 0,6 C 0,8 C 0,8 C 0,9 C 88 % 76 % 0 % 1025,8 hPa 0,0 l/m 0,0 km/h (0 Bft) S 180 0 min -1,8 C 0,8 C 0,0 km/h (0 Bft)
19.02.2017 03:25 -0,1 C 1,3 C 0,5 C 0,7 C 0,7 C 0,8 C 88 % 76 % 0 % 1025,8 hPa 0,0 l/m 0,0 km/h (0 Bft) S 180 0 min -1,8 C 0,7 C 0,0 km/h (0 Bft)
19.02.2017 03:30 -0,1 C 1,3 C 0,4 C 0,5 C 0,5 C 0,6 C 88 % 76 % 0 % 1025,8 hPa 0,0 l/m 0,0 km/h (0 Bft) O 90 0 min -1,8 C 0,5 C 0,0 km/h (0 Bft)
19.02.2017 03:35 -0,3 C 1,2 C 0,3 C 0,3 C 0,3 C 0,6 C 88 % 76 % 0 % 1024,8 hPa 0,0 l/m 0,0 km/h (0 Bft) SW 225 0 min -2,0 C 0,3 C 2,1 km/h (1 Bft)
19.02.2017 03:40 -0,3 C 1,2 C 0,4 C 0,4 C 0,4 C 0,7 C 88 % 76 % 0 % 1024,8 hPa 0,0 l/m 0,3 km/h (0 Bft) NW 315 0 min -2,0 C 0,4 C 0,0 km/h (0 Bft)
19.02.2017 03:45 -0,3 C 1,2 C 0,7 C 0,5 C 0,5 C 0,8 C 88 % 76 % 0 % 1024,8 hPa 0,0 l/m 0,5 km/h (0 Bft) W 270 0 min -2,0 C 0,5 C 0,0 km/h (0 Bft)
19.02.2017 03:50 -0,1 C 1,2 C 0,7 C 0,6 C 0,6 C 0,7 C 88 % 76 % 0 % 1024,8 hPa 0,0 l/m 0,3 km/h (0 Bft) S-SO 157 0 min -1,8 C 0,6 C 3,7 km/h (1 Bft)
19.02.2017 03:55 -0,2 C 1,0 C 0,8 C 0,8 C 0,8 C 1,0 C 88 % 76 % 0 % 1024,8 hPa 0,0 l/m 1,0 km/h (0 Bft) S 180 0 min -1,9 C 0,8 C 5,0 km/h (1 Bft)
19.02.2017 04:00 -0,1 C 1,0 C 0,7 C 0,8 C 0,8 C 0,9 C 88 % 76 % 0 % 1024,8 hPa 0,0 l/m 1,4 km/h (1 Bft) S-SO 157 0 min -1,8 C 0,8 C 1,8 km/h (1 Bft)
19.02.2017 04:05 0,1 C 1,0 C 0,6 C 0,7 C 0,7 C 0,6 C 88 % 76 % 0 % 1024,8 hPa 0,0 l/m 2,1 km/h (1 Bft) O 90 0 min -1,6 C 0,7 C 6,1 km/h (2 Bft)
19.02.2017 04:10 0,0 C 1,0 C 0,7 C 0,3 C 0,3 C 0,3 C 88 % 76 % 0 % 1024,8 hPa 0,0 l/m 3,1 km/h (1 Bft) S 180 0 min -1,7 C 0,3 C 3,5 km/h (1 Bft)
19.02.2017 04:15 0,1 C 1,0 C 0,7 C -0,1 C -0,4 C 0,0 C 88 % 76 % 0 % 1024,3 hPa 0,0 l/m 4,3 km/h (1 Bft) SW 225 0 min -1,6 C -0,4 C 8,0 km/h (2 Bft)
19.02.2017 04:20 0,3 C 1,0 C 0,6 C 0,0 C -0,6 C 0,0 C 88 % 76 % 0 % 1024,3 hPa 0,0 l/m 4,8 km/h (1 Bft) S-SO 157 0 min -1,4 C -2,2 C 6,0 km/h (2 Bft)
19.02.2017 04:25 0,3 C 1,0 C 0,6 C 0,0 C -0,6 C 0,0 C 88 % 76 % 0 % 1024,3 hPa 0,0 l/m 4,7 km/h (1 Bft) O 90 0 min -1,4 C -2,1 C 8,5 km/h (2 Bft)
19.02.2017 04:30 0,3 C 1,0 C 0,7 C 0,2 C -0,1 C 0,0 C 88 % 76 % 0 % 1024,3 hPa 0,0 l/m 3,9 km/h (1 Bft) W-SW 247 0 min -1,4 C -0,1 C 3,1 km/h (1 Bft)
19.02.2017 04:35 0,1 C 1,0 C 0,6 C 0,3 C 0,3 C 0,2 C 88 % 76 % 0 % 1024,4 hPa 0,0 l/m 1,6 km/h (1 Bft) O-SO 112 0 min -1,6 C 0,3 C 0,0 km/h (0 Bft)
19.02.2017 04:40 0,1 C 1,0 C 0,5 C 0,1 C 0,1 C 0,0 C 87 % 76 % 0 % 1024,4 hPa 0,0 l/m 1,1 km/h (1 Bft) SW 225 0 min -1,8 C 0,1 C 5,6 km/h (1 Bft)
19.02.2017 04:45 0,1 C 1,0 C 0,4 C 0,0 C -0,2 C 0,0 C 87 % 76 % 0 % 1024,4 hPa 0,0 l/m 2,9 km/h (1 Bft) S-SO 157 0 min -1,8 C -0,2 C 3,4 km/h (1 Bft)
19.02.2017 04:50 -0,1 C 1,0 C 0,3 C -0,2 C -0,4 C 0,0 C 87 % 76 % 0 % 1024,4 hPa 0,0 l/m 3,1 km/h (1 Bft) SO 135 0 min -2,0 C -0,4 C 0,0 km/h (0 Bft)
19.02.2017 04:55 -0,1 C 1,0 C 0,1 C 0,0 C 0,0 C 0,1 C 87 % 76 % 0 % 1024,4 hPa 0,0 l/m 2,3 km/h (1 Bft) S 180 0 min -2,0 C 0,0 C 3,4 km/h (1 Bft)
19.02.2017 05:00 -0,3 C 1,0 C 0,1 C -0,2 C -0,2 C 0,1 C 87 % 76 % 0 % 1024,4 hPa 0,0 l/m 2,4 km/h (1 Bft) SW 225 0 min -2,2 C -0,2 C 2,4 km/h (1 Bft)
19.02.2017 05:05 -0,4 C 1,0 C -0,3 C -0,3 C -0,3 C 0,1 C 87 % 76 % 0 % 1024,4 hPa 0,0 l/m 1,3 km/h (1 Bft) S-SW 202 0 min -2,3 C -0,3 C 0,0 km/h (0 Bft)
19.02.2017 05:10 -0,5 C 1,0 C -0,5 C -0,6 C -0,7 C 0,0 C 87 % 76 % 0 % 1024,4 hPa 0,0 l/m 0,3 km/h (0 Bft) NO 45 0 min -2,4 C -0,7 C 0,0 km/h (0 Bft)
19.02.2017 05:15 -0,7 C 1,0 C -0,5 C -0,8 C -1,0 C 0,0 C 87 % 76 % 0 % 1024,2 hPa 0,0 l/m 0,0 km/h (0 Bft) O 90 0 min -2,6 C -1,0 C 0,0 km/h (0 Bft)
19.02.2017 05:20 -0,8 C 1,0 C -0,7 C -0,9 C -1,2 C 0,0 C 87 % 76 % 0 % 1024,2 hPa 0,0 l/m 0,0 km/h (0 Bft) SO 135 0 min -2,7 C -1,2 C 0,0 km/h (0 Bft)
19.02.2017 05:25 -0,9 C 1,0 C -0,8 C -1,1 C -1,4 C 0,0 C 87 % 76 % 0 % 1024,2 hPa 0,0 l/m 0,2 km/h (0 Bft) O 90 0 min -2,8 C -1,4 C 0,0 km/h (0 Bft)
19.02.2017 05:30 -1,0 C 1,0 C -0,8 C -1,2 C -1,5 C 0,0 C 87 % 76 % 0 % 1024,2 hPa 0,0 l/m 0,2 km/h (0 Bft) SO 135 0 min -2,9 C -1,5 C 0,0 km/h (0 Bft)
19.02.2017 05:35 -1,1 C 1,0 C -0,9 C -1,2 C -1,5 C 0,0 C 87 % 76 % 0 % 1024,3 hPa 0,0 l/m 0,0 km/h (0 Bft) SW 225 0 min -3,0 C -1,5 C 0,0 km/h (0 Bft)
19.02.2017 05:40 -1,2 C 1,0 C -0,9 C -1,3 C -1,6 C 0,0 C 87 % 77 % 0 % 1024,3 hPa 0,0 l/m 0,2 km/h (0 Bft) W 270 0 min -3,1 C -1,6 C 0,0 km/h (0 Bft)
19.02.2017 05:45 -1,3 C 1,0 C -0,9 C -1,4 C -1,7 C 0,0 C 87 % 77 % 0 % 1024,3 hPa 0,0 l/m 0,3 km/h (0 Bft) NW 315 0 min -3,2 C -1,7 C 0,0 km/h (0 Bft)
19.02.2017 05:50 -1,3 C 1,0 C -1,1 C -1,5 C -1,8 C 0,0 C 87 % 77 % 0 % 1024,3 hPa 0,0 l/m 0,2 km/h (0 Bft) SW 225 0 min -3,2 C -1,8 C 0,0 km/h (0 Bft)
19.02.2017 05:55 -1,5 C 1,0 C -1,3 C -1,7 C -2,1 C 0,0 C 87 % 77 % 0 % 1023,6 hPa 0,0 l/m 0,0 km/h (0 Bft) SW 225 0 min -3,4 C -2,1 C 0,0 km/h (0 Bft)
19.02.2017 06:00 -1,5 C 1,2 C -1,4 C -1,7 C -2,2 C 0,0 C 87 % 77 % 0 % 1023,6 hPa 0,0 l/m 0,5 km/h (0 Bft) S 180 0 min -3,4 C -2,2 C 2,3 km/h (1 Bft)
19.02.2017 06:05 -1,6 C 1,1 C -1,3 C -1,7 C -2,0 C 0,0 C 87 % 77 % 0 % 1023,6 hPa 0,0 l/m 0,6 km/h (0 Bft) S 180 0 min -3,5 C -2,0 C 1,9 km/h (1 Bft)
19.02.2017 06:10 -1,7 C 1,2 C -1,3 C -1,8 C -2,1 C 0,0 C 87 % 77 % 0 % 1023,6 hPa 0,0 l/m 0,5 km/h (0 Bft) W 270 0 min -3,6 C -2,1 C 0,0 km/h (0 Bft)
19.02.2017 06:15 -1,7 C 1,2 C -1,3 C -1,9 C -2,3 C 0,0 C 87 % 78 % 0 % 1023,8 hPa 0,0 l/m 0,2 km/h (0 Bft) W-SW 247 0 min -3,6 C -2,3 C 0,0 km/h (0 Bft)
19.02.2017 06:20 -1,7 C 1,2 C -1,5 C -1,9 C -2,4 C 0,0 C 87 % 78 % 0 % 1023,8 hPa 0,0 l/m 0,0 km/h (0 Bft) W 270 0 min -3,6 C -2,4 C 0,0 km/h (0 Bft)
19.02.2017 06:25 -1,9 C 1,2 C -1,7 C -2,1 C -2,5 C 0,0 C 87 % 77 % 0 % 1023,8 hPa 0,0 l/m 0,0 km/h (0 Bft) SO 135 0 min -3,8 C -2,5 C 0,0 km/h (0 Bft)
19.02.2017 06:30 -2,1 C 1,2 C -1,9 C -2,3 C -2,7 C 0,0 C 87 % 77 % 0 % 1023,8 hPa 0,0 l/m 0,0 km/h (0 Bft) SO 135 0 min -4,0 C -2,7 C 0,0 km/h (0 Bft)
19.02.2017 06:35 -2,1 C 1,3 C -2,0 C -2,3 C -2,8 C 0,0 C 87 % 77 % 0 % 1023,8 hPa 0,0 l/m 0,0 km/h (0 Bft) O 90 0 min -4,0 C -2,8 C 0,0 km/h (0 Bft)
19.02.2017 06:40 -2,1 C 1,2 C -2,1 C -2,3 C -2,8 C 0,0 C 87 % 77 % 0 % 1023,8 hPa 0,0 l/m 0,0 km/h (0 Bft) O 90 0 min -4,0 C -2,8 C 0,0 km/h (0 Bft)
19.02.2017 06:45 -2,4 C 1,3 C -2,1 C -2,6 C -2,9 C 0,0 C 87 % 77 % 0 % 1023,8 hPa 0,0 l/m 0,0 km/h (0 Bft) S 180 0 min -4,3 C -2,9 C 0,0 km/h (0 Bft)
19.02.2017 06:50 -2,5 C 1,2 C -2,1 C -2,6 C -2,9 C 0,0 C 87 % 77 % 0 % 1023,8 hPa 0,0 l/m 0,0 km/h (0 Bft) S-SW 202 0 min -4,4 C -2,9 C 0,0 km/h (0 Bft)
19.02.2017 06:55 -2,3 C 1,2 C -2,1 C -2,4 C -2,6 C 0,0 C 87 % 77 % 0 % 1023,8 hPa 0,0 l/m 0,3 km/h (0 Bft) SO 135 0 min -4,2 C -2,6 C 0,0 km/h (0 Bft)
19.02.2017 07:00 -2,3 C 1,2 C -2,1 C -2,4 C -2,5 C 0,0 C 87 % 77 % 0 % 1023,8 hPa 0,0 l/m 0,3 km/h (0 Bft) O-NO 67 0 min -4,2 C -2,5 C 0,0 km/h (0 Bft)
19.02.2017 07:05 -2,4 C 1,2 C -2,1 C -2,5 C -2,6 C 0,0 C 87 % 78 % 0 % 1023,8 hPa 0,0 l/m 0,0 km/h (0 Bft) O-NO 67 0 min -4,3 C -2,6 C 0,0 km/h (0 Bft)
19.02.2017 07:10 -2,4 C 1,2 C -2,1 C -2,5 C -2,7 C 0,0 C 87 % 78 % 0 % 1023,8 hPa 0,0 l/m 0,0 km/h (0 Bft) O-NO 67 0 min -4,3 C -2,7 C 0,0 km/h (0 Bft)
19.02.2017 07:15 -2,3 C 1,2 C -2,3 C -2,5 C -2,8 C 0,0 C 87 % 78 % 0 % 1023,4 hPa 0,0 l/m 0,0 km/h (0 Bft) O 90 0 min -4,2 C -2,8 C 0,0 km/h (0 Bft)
19.02.2017 07:20 -2,5 C 1,2 C -2,3 C -2,6 C -2,7 C 0,0 C 87 % 78 % 0 % 1023,4 hPa 0,0 l/m 0,0 km/h (0 Bft) O-NO 67 0 min -4,4 C -2,7 C 0,0 km/h (0 Bft)
19.02.2017 07:25 -2,5 C 1,1 C -2,1 C -2,6 C -2,7 C 0,0 C 87 % 78 % 0 % 1023,4 hPa 0,0 l/m 0,0 km/h (0 Bft) O-SO 112 0 min -4,4 C -2,7 C 0,0 km/h (0 Bft)
19.02.2017 07:30 -2,5 C 1,2 C -1,9 C -2,5 C -2,6 C 0,0 C 87 % 80 % 0 % 1023,4 hPa 0,0 l/m 0,0 km/h (0 Bft) O-SO 112 0 min -4,4 C -2,6 C 0,0 km/h (0 Bft)
19.02.2017 07:35 -2,5 C 1,1 C -1,9 C -2,4 C -2,4 C 0,1 C 87 % 78 % 3 % 1023,8 hPa 0,0 l/m 0,0 km/h (0 Bft) NO 45 0 min -4,4 C -2,4 C 0,0 km/h (0 Bft)
19.02.2017 07:40 -2,3 C 1,1 C -2,1 C -2,3 C -2,3 C 0,0 C 88 % 77 % 0 % 1023,8 hPa 0,0 l/m 0,0 km/h (0 Bft) NO 45 0 min -4,0 C -2,3 C 0,0 km/h (0 Bft)
19.02.2017 07:45 -2,4 C 1,1 C -2,1 C -2,1 C -2,1 C 0,3 C 88 % 77 % 8 % 1023,8 hPa 0,0 l/m 0,0 km/h (0 Bft) SO 135 0 min -4,1 C -2,1 C 0,0 km/h (0 Bft)
19.02.2017 07:50 -2,4 C 1,1 C -1,9 C -1,9 C -1,9 C 0,5 C 88 % 77 % 13 % 1023,8 hPa 0,0 l/m 0,0 km/h (0 Bft) O-NO 67 0 min -4,1 C -1,9 C 0,0 km/h (0 Bft)
19.02.2017 07:55 -2,4 C 1,2 C -1,9 C -1,9 C -1,9 C 0,5 C 88 % 77 % 13 % 1023,8 hPa 0,0 l/m 0,0 km/h (0 Bft) O-SO 112 0 min -4,1 C -1,9 C 0,0 km/h (0 Bft)
19.02.2017 08:00 -2,3 C 1,1 C -1,8 C -1,8 C -1,8 C 0,5 C 88 % 77 % 13 % 1023,8 hPa 0,0 l/m 0,0 km/h (0 Bft) W 270 0 min -4,0 C -1,8 C 0,0 km/h (0 Bft)
19.02.2017 08:05 -2,1 C 1,1 C -1,3 C -1,5 C -1,5 C 0,6 C 88 % 77 % 16 % 1023,8 hPa 0,0 l/m 0,3 km/h (0 Bft) O-SO 112 0 min -3,8 C -1,5 C 0,0 km/h (0 Bft)
19.02.2017 08:10 -2,1 C 1,0 C -1,3 C -1,3 C -1,3 C 0,8 C 88 % 77 % 21 % 1023,8 hPa 0,0 l/m 0,3 km/h (0 Bft) O-NO 67 0 min -3,8 C -1,3 C 0,0 km/h (0 Bft)
19.02.2017 08:15 -1,9 C 1,0 C -1,2 C -1,0 C -1,0 C 0,9 C 88 % 77 % 24 % 1024,2 hPa 0,0 l/m 0,3 km/h (0 Bft) S 180 0 min -3,6 C -1,0 C 0,0 km/h (0 Bft)
19.02.2017 08:20 -1,7 C 1,0 C -0,9 C -0,7 C -0,7 C 1,0 C 88 % 77 % 26 % 1024,2 hPa 0,0 l/m 0,3 km/h (0 Bft) SW 225 0 min -3,4 C -0,7 C 0,0 km/h (0 Bft)
19.02.2017 08:25 -1,7 C 1,0 C -0,9 C 0,1 C 0,1 C 1,8 C 88 % 78 % 47 % 1024,2 hPa 0,0 l/m 0,2 km/h (0 Bft) O 90 5 min -3,4 C 0,1 C 0,0 km/h (0 Bft)
19.02.2017 08:30 -1,5 C 1,0 C -0,5 C 0,3 C 0,3 C 1,8 C 88 % 78 % 47 % 1024,2 hPa 0,0 l/m 0,3 km/h (0 Bft) S-SO 157 5 min -3,2 C 0,3 C 5,1 km/h (1 Bft)
19.02.2017 08:35 -1,3 C 1,0 C -0,3 C 0,8 C 0,8 C 2,1 C 88 % 79 % 55 % 1023,7 hPa 0,0 l/m 1,9 km/h (1 Bft) S-SO 157 5 min -3,0 C 0,8 C 6,8 km/h (2 Bft)
19.02.2017 08:40 -1,2 C 1,0 C 0,1 C 0,8 C 0,8 C 2,0 C 89 % 79 % 53 % 1023,7 hPa 0,0 l/m 2,7 km/h (1 Bft) S-SO 157 5 min -2,8 C 0,8 C 4,3 km/h (1 Bft)
19.02.2017 08:45 -1,0 C 0,9 C 0,4 C 1,4 C 1,4 C 2,4 C 88 % 78 % 63 % 1023,7 hPa 0,0 l/m 2,6 km/h (1 Bft) SW 225 5 min -2,7 C 1,4 C 8,7 km/h (2 Bft)
19.02.2017 08:50 -0,7 C 0,9 C 0,7 C 2,0 C 2,0 C 2,7 C 89 % 79 % 71 % 1023,7 hPa 0,0 l/m 3,1 km/h (1 Bft) O 90 5 min -2,3 C 2,0 C 4,8 km/h (1 Bft)
19.02.2017 08:55 -0,7 C 0,9 C 1,1 C 1,8 C 1,8 C 2,5 C 88 % 79 % 66 % 1023,0 hPa 0,0 l/m 4,0 km/h (1 Bft) O-NO 67 5 min -2,4 C 1,8 C 9,3 km/h (2 Bft)
19.02.2017 09:00 -0,5 C 0,9 C 1,8 C 2,6 C 2,6 C 3,1 C 88 % 78 % 82 % 1023,0 hPa 0,0 l/m 3,1 km/h (1 Bft) W 270 5 min -2,2 C 2,6 C 3,2 km/h (1 Bft)
19.02.2017 09:05 -0,5 C 0,9 C 1,9 C 2,3 C 2,3 C 2,8 C 88 % 76 % 74 % 1023,0 hPa 0,0 l/m 1,6 km/h (1 Bft) SO 135 5 min -2,2 C 2,3 C 3,9 km/h (1 Bft)
19.02.2017 09:10 -0,4 C 0,9 C 2,3 C 2,2 C 2,2 C 2,6 C 88 % 76 % 68 % 1023,0 hPa 0,0 l/m 2,4 km/h (1 Bft) W 270 5 min -2,1 C 2,2 C 6,1 km/h (2 Bft)
19.02.2017 09:15 -0,1 C 0,9 C 2,6 C 2,2 C 2,2 C 2,3 C 88 % 75 % 61 % 1023,0 hPa 0,0 l/m 3,4 km/h (1 Bft) NW 315 0 min -1,8 C 2,2 C 9,5 km/h (2 Bft)
19.02.2017 09:20 0,1 C 0,9 C 2,8 C 2,7 C 2,7 C 2,6 C 88 % 74 % 68 % 1023,0 hPa 0,0 l/m 2,6 km/h (1 Bft) SO 135 0 min -1,6 C 2,7 C 1,9 km/h (1 Bft)
19.02.2017 09:25 0,3 C 0,9 C 3,0 C 4,1 C 4,1 C 3,8 C 88 % 74 % 100 % 1023,0 hPa 0,0 l/m 2,4 km/h (1 Bft) W 270 5 min -1,4 C 4,1 C 3,9 km/h (1 Bft)
19.02.2017 09:30 0,5 C 0,9 C 3,3 C 4,5 C 4,5 C 4,0 C 88 % 74 % 100 % 1023,0 hPa 0,0 l/m 1,9 km/h (1 Bft) S 180 5 min -1,3 C 4,5 C 3,9 km/h (1 Bft)
19.02.2017 09:35 0,5 C 0,9 C 3,3 C 4,2 C 4,2 C 3,7 C 88 % 74 % 97 % 1023,1 hPa 0,0 l/m 2,1 km/h (1 Bft) SO 135 5 min -1,3 C 4,2 C 2,9 km/h (1 Bft)
19.02.2017 09:40 0,7 C 0,9 C 2,9 C 3,9 C 3,9 C 3,2 C 87 % 75 % 84 % 1023,1 hPa 0,0 l/m 2,1 km/h (1 Bft) S-SW 202 0 min -1,2 C 3,9 C 4,7 km/h (1 Bft)
19.02.2017 09:45 0,9 C 0,9 C 2,9 C 4,0 C 4,0 C 3,1 C 87 % 76 % 82 % 1023,1 hPa 0,0 l/m 2,4 km/h (1 Bft) N-NO 22 0 min -1,0 C 4,0 C 2,6 km/h (1 Bft)
19.02.2017 09:50 1,0 C 0,9 C 2,8 C 4,0 C 4,0 C 3,0 C 87 % 76 % 79 % 1023,1 hPa 0,0 l/m 2,4 km/h (1 Bft) W-SW 247 0 min -0,9 C 4,0 C 3,9 km/h (1 Bft)
19.02.2017 09:55 1,3 C 0,9 C 2,8 C 4,7 C 4,7 C 3,4 C 87 % 76 % 89 % 1022,9 hPa 0,0 l/m 2,3 km/h (1 Bft) SW 225 5 min -0,6 C 4,7 C 4,7 km/h (1 Bft)
19.02.2017 10:00 1,6 C 0,9 C 2,8 C 5,5 C 5,5 C 3,9 C 87 % 76 % 100 % 1022,9 hPa 0,0 l/m 2,9 km/h (1 Bft) W-SW 247 5 min -0,3 C 5,5 C 4,5 km/h (1 Bft)
19.02.2017 10:05 1,7 C 0,9 C 2,9 C 6,7 C 6,7 C 5,0 C 86 % 76 % 100 % 1022,9 hPa 0,0 l/m 3,1 km/h (1 Bft) W-SW 247 5 min -0,4 C 6,7 C 4,8 km/h (1 Bft)
19.02.2017 10:10 1,9 C 0,9 C 2,9 C 6,9 C 6,9 C 5,0 C 86 % 76 % 100 % 1022,9 hPa 0,0 l/m 2,9 km/h (1 Bft) W-SW 247 5 min -0,2 C 6,9 C 5,3 km/h (1 Bft)
19.02.2017 10:15 2,1 C 0,9 C 3,0 C 5,5 C 5,5 C 3,4 C 86 % 76 % 89 % 1023,3 hPa 0,0 l/m 3,7 km/h (1 Bft) W 270 5 min 0,0 C 5,5 C 12,1 km/h (2 Bft)
19.02.2017 10:20 2,5 C 0,9 C 3,1 C 4,2 C 4,2 C 1,7 C 86 % 76 % 45 % 1023,3 hPa 0,0 l/m 5,3 km/h (1 Bft) SW 225 0 min 0,4 C 3,1 C 4,3 km/h (1 Bft)
19.02.2017 10:25 3,1 C 0,8 C 3,1 C 3,8 C 3,8 C 0,7 C 85 % 76 % 18 % 1023,3 hPa 0,0 l/m 7,1 km/h (2 Bft) SW 225 0 min 0,8 C 2,0 C 13,8 km/h (3 Bft)
19.02.2017 10:30 3,2 C 0,8 C 3,2 C 3,8 C 3,8 C 0,6 C 85 % 77 % 16 % 1023,3 hPa 0,0 l/m 6,4 km/h (2 Bft) W-SW 247 0 min 0,9 C 2,2 C 13,0 km/h (3 Bft)
19.02.2017 10:35 3,5 C 0,8 C 3,3 C 4,1 C 4,1 C 0,6 C 84 % 77 % 16 % 1023,0 hPa 0,0 l/m 5,8 km/h (2 Bft) W-SW 247 0 min 1,1 C 2,8 C 14,2 km/h (3 Bft)
19.02.2017 10:40 3,6 C 0,8 C 3,5 C 4,4 C 4,4 C 0,8 C 84 % 78 % 21 % 1023,0 hPa 0,0 l/m 5,6 km/h (1 Bft) W-SW 247 0 min 1,2 C 3,2 C 12,7 km/h (3 Bft)
19.02.2017 10:45 3,8 C 0,8 C 3,6 C 4,7 C 4,7 C 0,9 C 84 % 79 % 24 % 1023,0 hPa 0,0 l/m 5,6 km/h (1 Bft) W-SW 247 0 min 1,4 C 3,5 C 17,4 km/h (3 Bft)
19.02.2017 10:50 4,1 C 0,8 C 3,9 C 5,0 C 5,0 C 0,9 C 83 % 81 % 24 % 1023,0 hPa 0,0 l/m 6,3 km/h (2 Bft) W-SW 247 0 min 1,5 C 3,6 C 10,8 km/h (2 Bft)
19.02.2017 10:55 4,2 C 0,8 C 3,9 C 5,6 C 5,6 C 1,4 C 83 % 81 % 37 % 1022,7 hPa 0,0 l/m 7,4 km/h (2 Bft) W-SW 247 0 min 1,6 C 4,0 C 2,9 km/h (1 Bft)
19.02.2017 11:00 4,5 C 0,8 C 4,2 C 6,8 C 6,8 C 2,3 C 83 % 83 % 61 % 1022,7 hPa 0,0 l/m 5,8 km/h (2 Bft) S-SO 157 0 min 1,9 C 5,9 C 11,6 km/h (2 Bft)
19.02.2017 11:05 4,7 C 0,8 C 4,5 C 7,9 C 7,9 C 3,2 C 82 % 85 % 84 % 1022,7 hPa 0,0 l/m 5,8 km/h (2 Bft) SW 225 0 min 1,9 C 7,1 C 12,6 km/h (3 Bft)
19.02.2017 11:10 4,9 C 0,8 C 4,8 C 8,4 C 8,4 C 3,5 C 81 % 86 % 92 % 1022,7 hPa 0,0 l/m 6,9 km/h (2 Bft) W-SW 247 5 min 1,9 C 7,4 C 9,5 km/h (2 Bft)
19.02.2017 11:15 5,0 C 0,8 C 4,9 C 8,7 C 8,2 C 3,7 C 80 % 87 % 97 % 1022,6 hPa 0,0 l/m 8,5 km/h (2 Bft) S 180 5 min 1,8 C 6,8 C 19,6 km/h (3 Bft)
19.02.2017 11:20 5,2 C 0,8 C 5,2 C 8,1 C 8,1 C 2,9 C 80 % 89 % 76 % 1022,6 hPa 0,0 l/m 7,4 km/h (2 Bft) W-SW 247 0 min 2,0 C 6,9 C 8,9 km/h (2 Bft)
19.02.2017 11:25 5,2 C 0,8 C 5,3 C 7,2 C 7,2 C 2,0 C 79 % 89 % 53 % 1022,6 hPa 0,0 l/m 6,8 km/h (2 Bft) SW 225 0 min 1,9 C 6,0 C 6,9 km/h (2 Bft)
19.02.2017 11:30 5,3 C 0,8 C 5,4 C 7,5 C 7,0 C 2,2 C 79 % 89 % 58 % 1022,6 hPa 0,0 l/m 7,9 km/h (2 Bft) S 180 0 min 2,0 C 5,5 C 10,3 km/h (2 Bft)
19.02.2017 11:35 5,5 C 0,8 C 5,5 C 6,8 C 6,8 C 1,3 C 78 % 89 % 34 % 1022,6 hPa 0,0 l/m 7,1 km/h (2 Bft) SO 135 0 min 2,0 C 5,5 C 8,4 km/h (2 Bft)
19.02.2017 11:40 5,5 C 0,8 C 5,6 C 6,7 C 6,7 C 1,2 C 78 % 89 % 32 % 1022,6 hPa 0,0 l/m 7,1 km/h (2 Bft) S-SW 202 0 min 2,0 C 5,4 C 9,0 km/h (2 Bft)
19.02.2017 11:45 5,6 C 0,8 C 5,7 C 6,9 C 6,9 C 1,3 C 78 % 89 % 34 % 1022,6 hPa 0,0 l/m 6,0 km/h (2 Bft) SW 225 0 min 2,1 C 5,9 C 6,4 km/h (2 Bft)
19.02.2017 11:50 5,6 C 0,8 C 5,6 C 6,7 C 6,7 C 1,1 C 78 % 89 % 29 % 1022,6 hPa 0,0 l/m 6,0 km/h (2 Bft) W-SW 247 0 min 2,1 C 5,7 C 6,4 km/h (2 Bft)
19.02.2017 11:55 5,5 C 0,8 C 5,5 C 6,2 C 6,2 C 0,7 C 77 % 89 % 18 % 1022,6 hPa 0,0 l/m 6,4 km/h (2 Bft) W-SW 247 0 min 1,8 C 5,0 C 13,5 km/h (3 Bft)
19.02.2017 12:00 5,5 C 0,8 C 5,4 C 6,1 C 6,1 C 0,6 C 77 % 89 % 16 % 1022,6 hPa 0,0 l/m 6,6 km/h (2 Bft) SW 225 0 min 1,8 C 4,8 C 9,2 km/h (2 Bft)
19.02.2017 12:05 5,5 C 0,8 C 5,5 C 5,9 C 5,9 C 0,4 C 77 % 89 % 11 % 1022,6 hPa 0,0 l/m 6,6 km/h (2 Bft) W-SW 247 0 min 1,8 C 4,6 C 6,6 km/h (2 Bft)
19.02.2017 12:10 5,5 C 0,8 C 5,5 C 6,1 C 6,1 C 0,6 C 77 % 89 % 16 % 1022,6 hPa 0,0 l/m 6,1 km/h (2 Bft) S 180 0 min 1,8 C 5,0 C 8,9 km/h (2 Bft)
19.02.2017 12:15 5,5 C 0,8 C 5,6 C 6,0 C 6,0 C 0,5 C 77 % 89 % 13 % 1022,6 hPa 0,0 l/m 6,0 km/h (2 Bft) SW 225 0 min 1,8 C 4,9 C 7,7 km/h (2 Bft)
19.02.2017 12:20 5,6 C 0,8 C 5,5 C 6,1 C 6,1 C 0,5 C 77 % 89 % 13 % 1022,6 hPa 0,0 l/m 5,6 km/h (1 Bft) SW 225 0 min 1,9 C 5,1 C 6,0 km/h (2 Bft)
19.02.2017 12:25 5,6 C 0,8 C 5,5 C 6,3 C 6,3 C 0,7 C 77 % 88 % 18 % 1022,6 hPa 0,0 l/m 4,8 km/h (1 Bft) W-SW 247 0 min 1,9 C 5,6 C 6,3 km/h (2 Bft)
19.02.2017 12:30 5,6 C 0,8 C 5,5 C 6,3 C 6,3 C 0,7 C 77 % 89 % 18 % 1022,6 hPa 0,0 l/m 4,8 km/h (1 Bft) S 180 0 min 1,9 C 5,6 C 3,2 km/h (1 Bft)
19.02.2017 12:35 5,6 C 0,8 C 5,5 C 5,8 C 5,8 C 0,2 C 77 % 89 % 5 % 1021,8 hPa 0,0 l/m 6,0 km/h (2 Bft) S 180 0 min 1,9 C 4,6 C 12,6 km/h (3 Bft)
19.02.2017 12:40 5,7 C 0,8 C 5,5 C 5,7 C 5,7 C 0,0 C 76 % 88 % 0 % 1021,8 hPa 0,0 l/m 6,3 km/h (2 Bft) W-SW 247 0 min 1,8 C 4,4 C 11,3 km/h (2 Bft)
19.02.2017 12:45 5,6 C 0,8 C 5,5 C 5,8 C 5,8 C 0,2 C 76 % 88 % 5 % 1021,8 hPa 0,0 l/m 6,0 km/h (2 Bft) W-SW 247 0 min 1,7 C 4,6 C 10,1 km/h (2 Bft)
19.02.2017 12:50 5,6 C 0,8 C 5,5 C 5,8 C 5,8 C 0,2 C 76 % 88 % 5 % 1021,8 hPa 0,0 l/m 6,0 km/h (2 Bft) W-SW 247 0 min 1,7 C 4,6 C 9,8 km/h (2 Bft)
19.02.2017 12:55 5,6 C 0,8 C 5,6 C 5,9 C 5,9 C 0,3 C 76 % 88 % 8 % 1021,7 hPa 0,0 l/m 6,0 km/h (2 Bft) W-SW 247 0 min 1,7 C 4,8 C 9,3 km/h (2 Bft)
19.02.2017 13:00 5,7 C 0,8 C 5,6 C 5,8 C 5,8 C 0,1 C 76 % 88 % 3 % 1021,7 hPa 0,0 l/m 6,1 km/h (2 Bft) W-SW 247 0 min 1,8 C 4,6 C 7,7 km/h (2 Bft)
19.02.2017 13:05 5,7 C 0,8 C 5,6 C 6,1 C 6,1 C 0,4 C 76 % 88 % 11 % 1021,7 hPa 0,0 l/m 5,6 km/h (1 Bft) O-SO 112 0 min 1,8 C 5,1 C 1,9 km/h (1 Bft)
19.02.2017 13:10 5,9 C 0,8 C 5,7 C 6,4 C 6,4 C 0,5 C 76 % 88 % 13 % 1021,7 hPa 0,0 l/m 5,1 km/h (1 Bft) S 180 0 min 2,0 C 5,6 C 3,9 km/h (1 Bft)
19.02.2017 13:15 5,9 C 0,8 C 5,9 C 6,7 C 6,7 C 0,8 C 76 % 88 % 21 % 1021,7 hPa 0,0 l/m 4,7 km/h (1 Bft) SW 225 0 min 2,0 C 6,1 C 7,1 km/h (2 Bft)
19.02.2017 13:20 5,8 C 0,8 C 5,8 C 6,6 C 6,6 C 0,8 C 76 % 88 % 21 % 1021,7 hPa 0,0 l/m 5,1 km/h (1 Bft) O-NO 67 0 min 1,9 C 5,9 C 6,4 km/h (2 Bft)
19.02.2017 13:25 5,9 C 0,8 C 5,9 C 6,8 C 6,8 C 0,9 C 76 % 88 % 24 % 1021,7 hPa 0,0 l/m 5,3 km/h (1 Bft) W-SW 247 0 min 2,0 C 6,0 C 5,5 km/h (1 Bft)
19.02.2017 13:30 6,1 C 0,8 C 6,0 C 6,9 C 6,9 C 0,8 C 76 % 88 % 21 % 1021,7 hPa 0,0 l/m 5,5 km/h (1 Bft) SW 225 0 min 2,2 C 6,1 C 4,0 km/h (1 Bft)
19.02.2017 13:35 6,1 C 0,8 C 6,0 C 7,3 C 7,3 C 1,2 C 77 % 88 % 32 % 1021,3 hPa 0,0 l/m 4,7 km/h (1 Bft) SW 225 0 min 2,4 C 6,8 C 6,6 km/h (2 Bft)
19.02.2017 13:40 6,2 C 0,9 C 6,3 C 7,6 C 7,6 C 1,4 C 77 % 88 % 37 % 1021,3 hPa 0,0 l/m 5,0 km/h (1 Bft) W 270 0 min 2,5 C 7,0 C 12,6 km/h (3 Bft)
19.02.2017 13:45 6,5 C 0,9 C 6,5 C 9,1 C 9,1 C 2,6 C 77 % 88 % 68 % 1021,3 hPa 0,0 l/m 5,1 km/h (1 Bft) W-NW 292 0 min 2,8 C 8,7 C 4,3 km/h (1 Bft)
19.02.2017 13:50 6,7 C 0,9 C 6,5 C 9,2 C 9,2 C 2,5 C 76 % 87 % 66 % 1021,3 hPa 0,0 l/m 6,0 km/h (2 Bft) S 180 0 min 2,8 C 8,6 C 8,9 km/h (2 Bft)
19.02.2017 13:55 6,6 C 0,9 C 6,6 C 8,9 C 8,2 C 2,3 C 75 % 86 % 61 % 1021,3 hPa 0,0 l/m 8,0 km/h (2 Bft) W-SW 247 0 min 2,5 C 6,9 C 11,9 km/h (2 Bft)
19.02.2017 14:00 6,7 C 0,9 C 6,5 C 8,1 C 7,4 C 1,4 C 74 % 85 % 37 % 1021,3 hPa 0,0 l/m 9,2 km/h (2 Bft) W-SW 247 0 min 2,4 C 5,7 C 12,7 km/h (3 Bft)
19.02.2017 14:05 6,6 C 0,9 C 6,7 C 7,7 C 7,2 C 1,1 C 74 % 84 % 29 % 1021,3 hPa 0,0 l/m 8,9 km/h (2 Bft) W-SW 247 0 min 2,3 C 5,5 C 11,9 km/h (2 Bft)
19.02.2017 14:10 6,7 C 0,9 C 6,7 C 7,5 C 6,9 C 0,8 C 73 % 83 % 21 % 1021,3 hPa 0,0 l/m 8,9 km/h (2 Bft) W-SW 247 0 min 2,2 C 5,2 C 13,4 km/h (3 Bft)
19.02.2017 14:15 6,7 C 0,9 C 6,6 C 6,9 C 6,9 C 0,2 C 73 % 82 % 5 % 1021,5 hPa 0,0 l/m 8,7 km/h (2 Bft) SW 225 0 min 2,2 C 5,2 C 8,2 km/h (2 Bft)
19.02.2017 14:20 6,7 C 0,9 C 6,7 C 7,5 C 7,2 C 0,8 C 74 % 83 % 21 % 1021,5 hPa 0,0 l/m 7,9 km/h (2 Bft) SW 225 0 min 2,4 C 5,7 C 7,4 km/h (2 Bft)
19.02.2017 14:25 6,7 C 0,9 C 6,8 C 7,7 C 7,4 C 1,0 C 73 % 82 % 26 % 1021,5 hPa 0,0 l/m 7,7 km/h (2 Bft) N-NO 22 0 min 2,2 C 6,0 C 5,1 km/h (1 Bft)
19.02.2017 14:30 6,7 C 0,9 C 6,8 C 7,7 C 7,2 C 1,0 C 73 % 83 % 26 % 1021,5 hPa 0,0 l/m 7,9 km/h (2 Bft) S 180 0 min 2,2 C 5,7 C 5,3 km/h (1 Bft)
19.02.2017 14:35 6,7 C 0,9 C 6,8 C 7,4 C 7,4 C 0,7 C 73 % 82 % 18 % 1021,4 hPa 0,0 l/m 7,1 km/h (2 Bft) W-SW 247 0 min 2,2 C 6,2 C 11,9 km/h (2 Bft)
19.02.2017 14:40 6,8 C 0,9 C 6,9 C 7,6 C 7,6 C 0,8 C 73 % 82 % 21 % 1021,4 hPa 0,0 l/m 7,1 km/h (2 Bft) N 360 0 min 2,3 C 6,4 C 6,1 km/h (2 Bft)
19.02.2017 14:45 6,7 C 0,9 C 6,8 C 7,6 C 6,9 C 0,9 C 72 % 82 % 24 % 1021,4 hPa 0,0 l/m 8,0 km/h (2 Bft) S 180 0 min 2,0 C 5,4 C 8,2 km/h (2 Bft)
19.02.2017 14:50 6,6 C 0,9 C 6,7 C 7,3 C 6,8 C 0,7 C 72 % 82 % 18 % 1021,4 hPa 0,0 l/m 8,0 km/h (2 Bft) W-SW 247 0 min 1,9 C 5,2 C 12,1 km/h (2 Bft)
19.02.2017 14:55 6,7 C 0,9 C 6,7 C 7,0 C 6,4 C 0,3 C 72 % 82 % 8 % 1021,0 hPa 0,0 l/m 8,4 km/h (2 Bft) SW 225 0 min 2,0 C 4,7 C 7,2 km/h (2 Bft)
19.02.2017 15:00 6,7 C 0,9 C 6,5 C 6,6 C 6,4 C 0,0 C 72 % 82 % 0 % 1021,0 hPa 0,0 l/m 8,0 km/h (2 Bft) S-SW 202 0 min 2,0 C 4,8 C 11,6 km/h (2 Bft)
19.02.2017 15:05 6,7 C 0,9 C 6,6 C 7,2 C 7,2 C 0,5 C 73 % 82 % 13 % 1021,0 hPa 0,0 l/m 5,6 km/h (1 Bft) S 180 0 min 2,2 C 6,4 C 5,8 km/h (2 Bft)
19.02.2017 15:10 6,6 C 0,9 C 6,7 C 7,2 C 7,2 C 0,6 C 73 % 82 % 16 % 1021,0 hPa 0,0 l/m 5,6 km/h (1 Bft) W 270 0 min 2,1 C 6,4 C 11,6 km/h (2 Bft)
19.02.2017 15:15 6,7 C 0,9 C 6,5 C 6,9 C 6,9 C 0,2 C 73 % 82 % 5 % 1020,7 hPa 0,0 l/m 6,3 km/h (2 Bft) SW 225 0 min 2,2 C 5,8 C 11,4 km/h (2 Bft)
19.02.2017 15:20 6,7 C 0,9 C 6,5 C 6,8 C 6,8 C 0,1 C 73 % 82 % 3 % 1020,7 hPa 0,0 l/m 6,3 km/h (2 Bft) SW 225 0 min 2,2 C 5,7 C 6,8 km/h (2 Bft)
19.02.2017 15:25 6,7 C 0,9 C 6,4 C 7,2 C 7,2 C 0,5 C 73 % 83 % 13 % 1020,7 hPa 0,0 l/m 4,7 km/h (1 Bft) O-SO 112 0 min 2,2 C 6,7 C 0,0 km/h (0 Bft)
19.02.2017 15:30 6,7 C 0,9 C 6,4 C 7,6 C 7,6 C 0,9 C 73 % 83 % 24 % 1020,7 hPa 0,0 l/m 3,7 km/h (1 Bft) W 270 0 min 2,2 C 7,6 C 3,9 km/h (1 Bft)
19.02.2017 15:35 6,7 C 0,9 C 6,4 C 7,8 C 7,8 C 1,1 C 73 % 83 % 29 % 1020,5 hPa 0,0 l/m 3,5 km/h (1 Bft) W-SW 247 0 min 2,2 C 7,8 C 5,6 km/h (1 Bft)
19.02.2017 15:40 6,6 C 0,9 C 6,4 C 7,7 C 7,7 C 1,1 C 73 % 84 % 29 % 1020,5 hPa 0,0 l/m 4,0 km/h (1 Bft) S-SW 202 0 min 2,1 C 7,7 C 10,1 km/h (2 Bft)
19.02.2017 15:45 6,7 C 0,9 C 6,4 C 7,3 C 7,3 C 0,6 C 73 % 83 % 16 % 1020,5 hPa 0,0 l/m 5,5 km/h (1 Bft) S 180 0 min 2,2 C 6,5 C 10,5 km/h (2 Bft)
19.02.2017 15:50 6,9 C 0,9 C 6,7 C 7,9 C 7,9 C 1,0 C 74 % 83 % 26 % 1020,5 hPa 0,0 l/m 5,5 km/h (1 Bft) SW 225 0 min 2,6 C 7,2 C 7,9 km/h (2 Bft)
19.02.2017 15:55 7,0 C 0,9 C 6,7 C 9,7 C 9,7 C 2,7 C 73 % 83 % 71 % 1020,5 hPa 0,0 l/m 4,3 km/h (1 Bft) S-SW 202 5 min 2,5 C 9,7 C 3,7 km/h (1 Bft)
19.02.2017 16:00 7,0 C 0,9 C 6,7 C 9,4 C 9,4 C 2,4 C 72 % 82 % 63 % 1020,5 hPa 0,0 l/m 4,7 km/h (1 Bft) S 180 5 min 2,3 C 9,2 C 6,9 km/h (2 Bft)
19.02.2017 16:05 7,1 C 0,9 C 6,7 C 8,4 C 8,4 C 1,3 C 72 % 82 % 34 % 1020,5 hPa 0,0 l/m 5,1 km/h (1 Bft) O-NO 67 0 min 2,4 C 7,9 C 3,7 km/h (1 Bft)
19.02.2017 16:10 7,1 C 0,9 C 6,7 C 8,8 C 8,8 C 1,7 C 73 % 82 % 45 % 1020,5 hPa 0,0 l/m 4,3 km/h (1 Bft) S-SO 157 0 min 2,6 C 8,8 C 5,5 km/h (1 Bft)
19.02.2017 16:15 7,1 C 0,9 C 6,7 C 9,0 C 9,0 C 1,9 C 72 % 82 % 50 % 1020,4 hPa 0,0 l/m 3,4 km/h (1 Bft) NW 315 5 min 2,4 C 9,0 C 2,3 km/h (1 Bft)
19.02.2017 16:20 7,1 C 0,9 C 6,4 C 8,8 C 8,8 C 1,7 C 72 % 82 % 45 % 1020,4 hPa 0,0 l/m 3,4 km/h (1 Bft) NW 315 5 min 2,4 C 8,8 C 5,8 km/h (2 Bft)
19.02.2017 16:25 6,9 C 0,9 C 6,3 C 8,1 C 8,1 C 1,2 C 72 % 82 % 32 % 1020,4 hPa 0,0 l/m 2,9 km/h (1 Bft) O-SO 112 0 min 2,2 C 8,1 C 2,4 km/h (1 Bft)
19.02.2017 16:30 6,8 C 0,9 C 6,0 C 7,8 C 7,8 C 1,0 C 72 % 83 % 26 % 1020,4 hPa 0,0 l/m 3,1 km/h (1 Bft) S-SW 202 0 min 2,1 C 7,8 C 2,9 km/h (1 Bft)
19.02.2017 16:35 6,7 C 0,9 C 6,0 C 7,5 C 7,5 C 0,8 C 73 % 83 % 21 % 1020,6 hPa 0,0 l/m 1,8 km/h (1 Bft) W 270 0 min 2,2 C 7,5 C 4,2 km/h (1 Bft)
19.02.2017 16:40 6,7 C 0,9 C 5,9 C 7,4 C 7,4 C 0,7 C 73 % 83 % 18 % 1020,6 hPa 0,0 l/m 1,3 km/h (1 Bft) W-SW 247 0 min 2,2 C 7,4 C 3,1 km/h (1 Bft)
19.02.2017 16:45 6,6 C 0,9 C 5,7 C 7,1 C 7,1 C 0,5 C 73 % 84 % 13 % 1020,6 hPa 0,0 l/m 1,6 km/h (1 Bft) O 90 0 min 2,1 C 7,1 C 3,2 km/h (1 Bft)
19.02.2017 16:50 6,5 C 0,9 C 5,6 C 6,9 C 6,9 C 0,4 C 73 % 84 % 11 % 1020,6 hPa 0,0 l/m 2,4 km/h (1 Bft) S 180 0 min 2,0 C 6,9 C 6,1 km/h (2 Bft)
19.02.2017 16:55 6,4 C 0,9 C 5,6 C 6,7 C 6,7 C 0,3 C 73 % 84 % 8 % 1020,4 hPa 0,0 l/m 2,7 km/h (1 Bft) W-SW 247 0 min 1,9 C 6,7 C 4,8 km/h (1 Bft)
19.02.2017 17:00 6,4 C 0,9 C 5,5 C 6,5 C 6,5 C 0,1 C 73 % 84 % 3 % 1020,4 hPa 0,0 l/m 2,3 km/h (1 Bft) W-SW 247 0 min 1,9 C 6,5 C 3,4 km/h (1 Bft)
19.02.2017 17:05 6,3 C 0,9 C 5,3 C 6,3 C 6,2 C 0,0 C 73 % 84 % 0 % 1020,4 hPa 0,0 l/m 2,7 km/h (1 Bft) SO 135 0 min 1,8 C 6,2 C 7,9 km/h (2 Bft)
19.02.2017 17:10 6,2 C 0,9 C 5,3 C 6,0 C 5,7 C 0,0 C 73 % 84 % 0 % 1020,4 hPa 0,0 l/m 4,2 km/h (1 Bft) SW 225 0 min 1,7 C 5,7 C 11,7 km/h (2 Bft)
19.02.2017 17:15 6,1 C 0,9 C 5,1 C 5,8 C 5,2 C 0,0 C 73 % 84 % 0 % 1020,1 hPa 0,0 l/m 4,8 km/h (1 Bft) SW 225 0 min 1,6 C 4,4 C 4,7 km/h (1 Bft)
19.02.2017 17:20 6,0 C 0,9 C 4,9 C 5,7 C 5,2 C 0,0 C 74 % 84 % 0 % 1020,1 hPa 0,0 l/m 4,3 km/h (1 Bft) S 180 0 min 1,7 C 5,2 C 2,1 km/h (1 Bft)
19.02.2017 17:25 5,9 C 0,9 C 4,9 C 5,7 C 5,3 C 0,0 C 74 % 85 % 0 % 1020,1 hPa 0,0 l/m 3,7 km/h (1 Bft) S 180 0 min 1,6 C 5,3 C 5,1 km/h (1 Bft)
19.02.2017 17:30 5,9 C 0,9 C 4,9 C 5,7 C 5,4 C 0,0 C 74 % 85 % 0 % 1020,1 hPa 0,0 l/m 3,9 km/h (1 Bft) W 270 0 min 1,6 C 5,4 C 5,0 km/h (1 Bft)
19.02.2017 17:35 5,9 C 0,9 C 4,8 C 5,8 C 5,5 C 0,0 C 74 % 85 % 0 % 1020,1 hPa 0,0 l/m 3,4 km/h (1 Bft) W-SW 247 0 min 1,6 C 5,5 C 4,2 km/h (1 Bft)
19.02.2017 17:40 5,7 C 0,9 C 4,6 C 5,6 C 5,5 C 0,0 C 75 % 86 % 0 % 1020,1 hPa 0,0 l/m 2,7 km/h (1 Bft) W-NW 292 0 min 1,6 C 5,5 C 7,6 km/h (2 Bft)
19.02.2017 17:45 5,6 C 0,9 C 4,5 C 5,5 C 5,3 C 0,0 C 75 % 86 % 0 % 1020,1 hPa 0,0 l/m 2,9 km/h (1 Bft) W-SW 247 0 min 1,5 C 5,3 C 4,0 km/h (1 Bft)
19.02.2017 17:50 5,5 C 1,0 C 4,4 C 5,4 C 5,2 C 0,0 C 75 % 86 % 0 % 1020,1 hPa 0,0 l/m 2,6 km/h (1 Bft) SW 225 0 min 1,4 C 5,2 C 4,5 km/h (1 Bft)
19.02.2017 17:55 5,5 C 1,0 C 4,4 C 5,3 C 5,0 C 0,0 C 76 % 86 % 0 % 1020,5 hPa 0,0 l/m 1,6 km/h (1 Bft) W 270 0 min 1,6 C 5,0 C 2,4 km/h (1 Bft)
19.02.2017 18:00 5,3 C 1,0 C 4,4 C 5,2 C 5,0 C 0,0 C 76 % 86 % 0 % 1020,5 hPa 0,0 l/m 2,1 km/h (1 Bft) W-SW 247 0 min 1,4 C 5,0 C 4,0 km/h (1 Bft)
19.02.2017 18:05 5,3 C 1,0 C 4,3 C 5,1 C 4,8 C 0,0 C 76 % 86 % 0 % 1020,5 hPa 0,0 l/m 2,9 km/h (1 Bft) S-SW 202 0 min 1,4 C 4,8 C 7,9 km/h (2 Bft)
19.02.2017 18:10 5,2 C 1,0 C 4,3 C 5,0 C 4,7 C 0,0 C 76 % 86 % 0 % 1020,5 hPa 0,0 l/m 3,1 km/h (1 Bft) W 270 0 min 1,3 C 4,7 C 2,9 km/h (1 Bft)
19.02.2017 18:15 5,3 C 1,0 C 4,2 C 5,1 C 4,7 C 0,0 C 76 % 86 % 0 % 1020,4 hPa 0,0 l/m 3,2 km/h (1 Bft) W 270 0 min 1,4 C 4,7 C 3,4 km/h (1 Bft)
19.02.2017 18:20 5,2 C 1,0 C 4,0 C 5,1 C 4,8 C 0,0 C 76 % 86 % 0 % 1020,4 hPa 0,0 l/m 2,9 km/h (1 Bft) W-SW 247 0 min 1,3 C 4,8 C 4,3 km/h (1 Bft)
19.02.2017 18:25 5,1 C 1,0 C 4,0 C 4,9 C 4,5 C 0,0 C 77 % 87 % 0 % 1020,4 hPa 0,0 l/m 3,4 km/h (1 Bft) S-SW 202 0 min 1,4 C 4,5 C 8,5 km/h (2 Bft)
19.02.2017 18:30 5,1 C 1,0 C 4,0 C 4,8 C 4,2 C 0,0 C 77 % 87 % 0 % 1020,4 hPa 0,0 l/m 4,0 km/h (1 Bft) W 270 0 min 1,4 C 4,2 C 1,9 km/h (1 Bft)
19.02.2017 18:35 5,0 C 1,0 C 4,0 C 4,7 C 4,2 C 0,0 C 77 % 87 % 0 % 1020,6 hPa 0,0 l/m 4,2 km/h (1 Bft) NW 315 0 min 1,3 C 4,2 C 4,7 km/h (1 Bft)
19.02.2017 18:40 5,1 C 1,0 C 4,0 C 4,9 C 4,6 C 0,0 C 77 % 87 % 0 % 1020,6 hPa 0,0 l/m 3,4 km/h (1 Bft) W 270 0 min 1,4 C 4,6 C 0,0 km/h (0 Bft)
19.02.2017 18:45 5,1 C 1,0 C 4,0 C 5,0 C 4,8 C 0,0 C 77 % 87 % 0 % 1020,6 hPa 0,0 l/m 2,3 km/h (1 Bft) W-SW 247 0 min 1,4 C 4,8 C 5,5 km/h (1 Bft)
19.02.2017 18:50 5,1 C 1,0 C 4,0 C 5,0 C 4,8 C 0,0 C 77 % 87 % 0 % 1020,6 hPa 0,0 l/m 1,8 km/h (1 Bft) W-SW 247 0 min 1,4 C 4,8 C 5,8 km/h (2 Bft)
19.02.2017 18:55 4,9 C 1,0 C 4,1 C 5,0 C 5,0 C 0,1 C 78 % 87 % 0 % 1020,4 hPa 0,0 l/m 2,7 km/h (1 Bft) SO 135 0 min 1,4 C 5,0 C 2,1 km/h (1 Bft)
19.02.2017 19:00 4,9 C 1,0 C 4,1 C 5,0 C 5,0 C 0,1 C 78 % 87 % 0 % 1020,4 hPa 0,0 l/m 2,4 km/h (1 Bft) W-SW 247 0 min 1,4 C 5,0 C 4,5 km/h (1 Bft)
19.02.2017 19:05 4,9 C 1,0 C 4,1 C 5,0 C 5,0 C 0,1 C 78 % 87 % 0 % 1020,4 hPa 0,0 l/m 2,7 km/h (1 Bft) S 180 0 min 1,4 C 5,0 C 6,6 km/h (2 Bft)
19.02.2017 19:10 4,9 C 1,0 C 4,0 C 4,8 C 4,6 C 0,0 C 78 % 87 % 0 % 1020,4 hPa 0,0 l/m 3,4 km/h (1 Bft) SW 225 0 min 1,4 C 4,6 C 5,8 km/h (2 Bft)
19.02.2017 19:15 4,9 C 1,0 C 4,1 C 4,5 C 3,8 C 0,0 C 78 % 87 % 0 % 1020,9 hPa 0,0 l/m 5,1 km/h (1 Bft) SW 225 0 min 1,4 C 2,7 C 8,2 km/h (2 Bft)
19.02.2017 19:20 4,9 C 1,0 C 4,0 C 4,5 C 3,7 C 0,0 C 78 % 87 % 0 % 1020,9 hPa 0,0 l/m 5,3 km/h (1 Bft) S-SW 202 0 min 1,4 C 2,5 C 3,1 km/h (1 Bft)
19.02.2017 19:25 4,9 C 1,0 C 4,0 C 4,4 C 3,4 C 0,0 C 79 % 87 % 0 % 1020,9 hPa 0,0 l/m 5,8 km/h (2 Bft) W-SW 247 0 min 1,6 C 2,0 C 8,9 km/h (2 Bft)
19.02.2017 19:30 4,8 C 1,0 C 4,0 C 4,3 C 3,4 C 0,0 C 79 % 87 % 0 % 1020,9 hPa 0,0 l/m 5,6 km/h (1 Bft) S 180 0 min 1,5 C 2,0 C 6,4 km/h (2 Bft)
19.02.2017 19:35 4,8 C 1,0 C 3,9 C 4,3 C 3,4 C 0,0 C 79 % 88 % 0 % 1020,5 hPa 0,0 l/m 5,6 km/h (1 Bft) S 180 0 min 1,5 C 2,0 C 7,9 km/h (2 Bft)
19.02.2017 19:40 4,8 C 1,0 C 3,9 C 4,3 C 3,4 C 0,0 C 80 % 88 % 0 % 1020,5 hPa 0,0 l/m 5,6 km/h (1 Bft) SW 225 0 min 1,6 C 2,0 C 4,8 km/h (1 Bft)
19.02.2017 19:45 4,7 C 1,0 C 3,9 C 4,2 C 3,3 C 0,0 C 80 % 88 % 0 % 1020,5 hPa 0,0 l/m 6,0 km/h (2 Bft) SW 225 0 min 1,6 C 1,8 C 6,9 km/h (2 Bft)
19.02.2017 19:50 4,7 C 1,0 C 3,9 C 4,2 C 3,3 C 0,0 C 80 % 88 % 0 % 1020,5 hPa 0,0 l/m 6,0 km/h (2 Bft) SW 225 0 min 1,6 C 1,8 C 2,9 km/h (1 Bft)
19.02.2017 19:55 4,7 C 1,0 C 3,9 C 4,3 C 3,4 C 0,0 C 81 % 88 % 0 % 1020,5 hPa 0,0 l/m 5,0 km/h (1 Bft) S 180 0 min 1,7 C 2,3 C 4,7 km/h (1 Bft)
19.02.2017 20:00 4,5 C 1,0 C 3,7 C 4,1 C 3,4 C 0,0 C 81 % 88 % 0 % 1020,5 hPa 0,0 l/m 4,3 km/h (1 Bft) W 270 0 min 1,5 C 3,4 C 0,0 km/h (0 Bft)
19.02.2017 20:05 4,4 C 1,0 C 3,6 C 4,1 C 3,4 C 0,0 C 82 % 89 % 0 % 1020,5 hPa 0,0 l/m 4,0 km/h (1 Bft) W-SW 247 0 min 1,6 C 3,4 C 6,0 km/h (2 Bft)
19.02.2017 20:10 4,3 C 1,0 C 3,6 C 4,0 C 3,4 C 0,0 C 82 % 89 % 0 % 1020,5 hPa 0,0 l/m 3,7 km/h (1 Bft) SW 225 0 min 1,5 C 3,4 C 4,5 km/h (1 Bft)
19.02.2017 20:15 4,3 C 1,1 C 3,6 C 3,8 C 2,9 C 0,0 C 82 % 89 % 0 % 1020,5 hPa 0,0 l/m 4,7 km/h (1 Bft) W-SW 247 0 min 1,5 C 1,8 C 7,1 km/h (2 Bft)
19.02.2017 20:20 4,2 C 1,1 C 3,7 C 3,8 C 2,9 C 0,0 C 83 % 89 % 0 % 1020,5 hPa 0,0 l/m 4,5 km/h (1 Bft) S 180 0 min 1,6 C 2,9 C 3,4 km/h (1 Bft)
19.02.2017 20:25 4,2 C 1,1 C 3,6 C 4,0 C 3,6 C 0,0 C 83 % 89 % 0 % 1020,5 hPa 0,0 l/m 3,1 km/h (1 Bft) O-NO 67 0 min 1,6 C 3,6 C 3,7 km/h (1 Bft)
19.02.2017 20:30 4,1 C 1,1 C 3,6 C 4,0 C 3,7 C 0,0 C 83 % 90 % 0 % 1020,5 hPa 0,0 l/m 2,9 km/h (1 Bft) S-SW 202 0 min 1,5 C 3,7 C 2,4 km/h (1 Bft)
19.02.2017 20:35 4,0 C 1,1 C 3,6 C 3,9 C 3,7 C 0,0 C 83 % 90 % 0 % 1020,6 hPa 0,0 l/m 2,7 km/h (1 Bft) SW 225 0 min 1,4 C 3,7 C 5,5 km/h (1 Bft)
19.02.2017 20:40 4,1 C 1,1 C 3,6 C 3,9 C 3,5 C 0,0 C 83 % 90 % 0 % 1020,6 hPa 0,0 l/m 3,2 km/h (1 Bft) W 270 0 min 1,5 C 3,5 C 2,1 km/h (1 Bft)
19.02.2017 20:45 4,0 C 1,1 C 3,6 C 3,8 C 3,3 C 0,0 C 83 % 90 % 0 % 1020,6 hPa 0,0 l/m 3,5 km/h (1 Bft) W-SW 247 0 min 1,4 C 3,3 C 10,9 km/h (2 Bft)
19.02.2017 20:50 3,9 C 1,1 C 3,6 C 3,8 C 3,6 C 0,0 C 84 % 90 % 0 % 1020,6 hPa 0,0 l/m 2,7 km/h (1 Bft) W-SW 247 0 min 1,4 C 3,6 C 3,7 km/h (1 Bft)
19.02.2017 20:55 3,8 C 1,1 C 3,6 C 3,7 C 3,6 C 0,0 C 84 % 90 % 0 % 1021,1 hPa 0,0 l/m 2,9 km/h (1 Bft) S 180 0 min 1,4 C 3,6 C 3,5 km/h (1 Bft)
19.02.2017 21:00 3,9 C 1,1 C 3,6 C 3,8 C 3,6 C 0,0 C 84 % 90 % 0 % 1021,1 hPa 0,0 l/m 2,4 km/h (1 Bft) W-SW 247 0 min 1,4 C 3,6 C 5,3 km/h (1 Bft)
19.02.2017 21:05 3,9 C 1,1 C 3,6 C 3,8 C 3,7 C 0,0 C 84 % 90 % 0 % 1021,1 hPa 0,0 l/m 2,6 km/h (1 Bft) SW 225 0 min 1,4 C 3,7 C 3,2 km/h (1 Bft)
19.02.2017 21:10 3,9 C 1,1 C 3,6 C 3,8 C 3,6 C 0,0 C 84 % 90 % 0 % 1021,1 hPa 0,0 l/m 3,1 km/h (1 Bft) S 180 0 min 1,4 C 3,6 C 4,5 km/h (1 Bft)
19.02.2017 21:15 3,8 C 1,1 C 3,7 C 3,8 C 3,7 C 0,0 C 84 % 90 % 0 % 1020,9 hPa 0,0 l/m 2,4 km/h (1 Bft) S 180 0 min 1,4 C 3,7 C 5,6 km/h (1 Bft)
19.02.2017 21:20 3,8 C 1,1 C 3,7 C 3,8 C 3,8 C 0,0 C 84 % 90 % 0 % 1020,9 hPa 0,0 l/m 2,4 km/h (1 Bft) W-SW 247 0 min 1,4 C 3,8 C 4,8 km/h (1 Bft)
19.02.2017 21:25 3,7 C 1,1 C 3,6 C 3,8 C 3,8 C 0,1 C 84 % 90 % 0 % 1020,9 hPa 0,0 l/m 2,9 km/h (1 Bft) W-SW 247 0 min 1,3 C 3,8 C 1,8 km/h (1 Bft)
19.02.2017 21:30 3,7 C 1,1 C 3,6 C 3,8 C 3,8 C 0,1 C 84 % 90 % 0 % 1020,9 hPa 0,0 l/m 2,9 km/h (1 Bft) S-SO 157 0 min 1,3 C 3,8 C 4,2 km/h (1 Bft)
19.02.2017 21:35 3,7 C 1,1 C 3,7 C 3,9 C 3,9 C 0,2 C 84 % 90 % 0 % 1021,1 hPa 0,0 l/m 3,1 km/h (1 Bft) O 90 0 min 1,3 C 3,9 C 3,2 km/h (1 Bft)
19.02.2017 21:40 3,7 C 1,1 C 3,7 C 3,8 C 3,8 C 0,1 C 84 % 90 % 0 % 1021,1 hPa 0,0 l/m 3,5 km/h (1 Bft) W 270 0 min 1,3 C 3,8 C 2,7 km/h (1 Bft)
19.02.2017 21:45 3,7 C 1,1 C 3,7 C 4,0 C 4,0 C 0,3 C 84 % 90 % 0 % 1021,1 hPa 0,0 l/m 3,1 km/h (1 Bft) O-NO 67 0 min 1,3 C 4,0 C 3,9 km/h (1 Bft)
19.02.2017 21:50 3,7 C 1,1 C 3,7 C 4,1 C 4,1 C 0,4 C 84 % 90 % 0 % 1021,1 hPa 0,0 l/m 2,6 km/h (1 Bft) W 270 0 min 1,3 C 4,1 C 3,9 km/h (1 Bft)
19.02.2017 21:55 3,7 C 1,1 C 3,7 C 4,1 C 4,1 C 0,4 C 85 % 90 % 0 % 1020,8 hPa 0,0 l/m 3,2 km/h (1 Bft) O-NO 67 0 min 1,4 C 4,1 C 2,7 km/h (1 Bft)
19.02.2017 22:00 3,7 C 1,1 C 3,9 C 3,8 C 3,8 C 0,1 C 85 % 90 % 0 % 1020,8 hPa 0,0 l/m 3,7 km/h (1 Bft) W-SW 247 0 min 1,4 C 3,8 C 9,5 km/h (2 Bft)
19.02.2017 22:05 3,7 C 1,1 C 3,7 C 4,2 C 4,2 C 0,5 C 84 % 90 % 0 % 1020,8 hPa 0,0 l/m 2,7 km/h (1 Bft) NW 315 0 min 1,3 C 4,2 C 3,5 km/h (1 Bft)
19.02.2017 22:10 3,7 C 1,1 C 3,7 C 4,1 C 4,1 C 0,4 C 84 % 90 % 0 % 1020,8 hPa 0,0 l/m 2,4 km/h (1 Bft) N-NO 22 0 min 1,3 C 4,1 C 1,6 km/h (1 Bft)
19.02.2017 22:15 3,7 C 1,1 C 3,7 C 4,1 C 4,1 C 0,4 C 85 % 90 % 0 % 1020,7 hPa 0,0 l/m 2,1 km/h (1 Bft) SW 225 0 min 1,4 C 4,1 C 4,0 km/h (1 Bft)
19.02.2017 22:20 3,6 C 1,1 C 3,6 C 4,1 C 4,1 C 0,5 C 85 % 90 % 0 % 1020,7 hPa 0,0 l/m 2,3 km/h (1 Bft) SW 225 0 min 1,3 C 4,1 C 4,0 km/h (1 Bft)
19.02.2017 22:25 3,6 C 1,1 C 3,7 C 3,8 C 3,8 C 0,2 C 85 % 90 % 0 % 1020,7 hPa 0,0 l/m 3,4 km/h (1 Bft) SW 225 0 min 1,3 C 3,8 C 4,2 km/h (1 Bft)
19.02.2017 22:30 3,6 C 1,1 C 3,7 C 3,6 C 3,6 C 0,0 C 85 % 90 % 0 % 1020,7 hPa 0,0 l/m 3,9 km/h (1 Bft) W-SW 247 0 min 1,3 C 3,6 C 5,6 km/h (1 Bft)
19.02.2017 22:35 3,6 C 1,1 C 3,7 C 3,5 C 3,3 C 0,0 C 85 % 90 % 0 % 1020,9 hPa 0,0 l/m 4,3 km/h (1 Bft) SW 225 0 min 1,3 C 3,3 C 4,0 km/h (1 Bft)
19.02.2017 22:40 3,7 C 1,1 C 3,7 C 3,6 C 3,4 C 0,0 C 85 % 90 % 0 % 1020,9 hPa 0,0 l/m 4,5 km/h (1 Bft) SW 225 0 min 1,4 C 3,4 C 6,8 km/h (2 Bft)
19.02.2017 22:45 3,6 C 1,1 C 3,7 C 3,6 C 3,6 C 0,0 C 85 % 90 % 0 % 1020,9 hPa 0,0 l/m 4,2 km/h (1 Bft) W-SW 247 0 min 1,3 C 3,6 C 4,8 km/h (1 Bft)
19.02.2017 22:50 3,7 C 1,1 C 3,8 C 3,7 C 3,6 C 0,0 C 85 % 90 % 0 % 1020,9 hPa 0,0 l/m 4,2 km/h (1 Bft) W-SW 247 0 min 1,4 C 3,6 C 5,1 km/h (1 Bft)
19.02.2017 22:55 3,7 C 1,1 C 3,9 C 3,8 C 3,8 C 0,1 C 85 % 90 % 0 % 1020,8 hPa 0,0 l/m 3,9 km/h (1 Bft) SW 225 0 min 1,4 C 3,8 C 4,8 km/h (1 Bft)
19.02.2017 23:00 3,7 C 1,1 C 3,7 C 3,7 C 3,7 C 0,0 C 85 % 90 % 0 % 1020,8 hPa 0,0 l/m 4,0 km/h (1 Bft) W-SW 247 0 min 1,4 C 3,7 C 5,5 km/h (1 Bft)
19.02.2017 23:05 3,7 C 1,1 C 3,8 C 3,6 C 3,4 C 0,0 C 85 % 90 % 0 % 1020,8 hPa 0,0 l/m 4,8 km/h (1 Bft) SW 225 0 min 1,4 C 2,4 C 5,3 km/h (1 Bft)
19.02.2017 23:10 3,7 C 1,1 C 3,8 C 3,5 C 3,1 C 0,0 C 85 % 90 % 0 % 1020,8 hPa 0,0 l/m 5,6 km/h (1 Bft) SW 225 0 min 1,4 C 1,7 C 6,0 km/h (2 Bft)
19.02.2017 23:15 3,7 C 1,1 C 3,9 C 3,6 C 3,3 C 0,0 C 85 % 90 % 0 % 1020,8 hPa 0,0 l/m 5,3 km/h (1 Bft) NW 315 0 min 1,4 C 2,0 C 2,9 km/h (1 Bft)
19.02.2017 23:20 3,7 C 1,1 C 3,9 C 3,6 C 3,4 C 0,0 C 85 % 90 % 0 % 1020,8 hPa 0,0 l/m 4,8 km/h (1 Bft) S-SW 202 0 min 1,4 C 2,4 C 3,4 km/h (1 Bft)
19.02.2017 23:25 3,7 C 1,1 C 3,8 C 3,9 C 3,9 C 0,2 C 85 % 90 % 0 % 1020,8 hPa 0,0 l/m 3,9 km/h (1 Bft) O-SO 112 0 min 1,4 C 3,9 C 3,7 km/h (1 Bft)
19.02.2017 23:30 3,7 C 1,2 C 3,8 C 3,9 C 3,9 C 0,2 C 85 % 90 % 0 % 1020,8 hPa 0,0 l/m 3,5 km/h (1 Bft) S-SW 202 0 min 1,4 C 3,9 C 6,3 km/h (2 Bft)
19.02.2017 23:35 3,6 C 1,2 C 3,7 C 3,7 C 3,7 C 0,1 C 85 % 90 % 0 % 1021,1 hPa 0,0 l/m 3,7 km/h (1 Bft) W-SW 247 0 min 1,3 C 3,7 C 5,3 km/h (1 Bft)
19.02.2017 23:40 3,6 C 1,2 C 3,6 C 3,5 C 3,2 C 0,0 C 85 % 90 % 0 % 1021,1 hPa 0,0 l/m 4,3 km/h (1 Bft) SW 225 0 min 1,3 C 3,2 C 5,8 km/h (2 Bft)
19.02.2017 23:45 3,5 C 1,2 C 3,6 C 3,4 C 3,3 C 0,0 C 85 % 90 % 0 % 1021,1 hPa 0,0 l/m 3,9 km/h (1 Bft) S 180 0 min 1,2 C 3,3 C 6,3 km/h (2 Bft)
19.02.2017 23:50 3,5 C 1,2 C 3,7 C 3,6 C 3,6 C 0,1 C 85 % 90 % 0 % 1021,1 hPa 0,0 l/m 3,4 km/h (1 Bft) S 180 0 min 1,2 C 3,6 C 3,4 km/h (1 Bft)
19.02.2017 23:55 3,5 C 1,2 C 3,6 C 3,8 C 3,8 C 0,3 C 85 % 90 % 0 % 1021,2 hPa 0,0 l/m 2,7 km/h (1 Bft) W-SW 247 0 min 1,2 C 3,8 C 6,3 km/h (2 Bft)
_ Min-Zeit 06:50 10:25 07:15 06:45 06:45 04:15 14:45 09:20 00:00 17:15 - 00:00 - - - 06:50 06:45 00:00
Minimum _ -2,5 C 0,8 C -2,3 C -2,6 C -2,9 C 0,0 C 72 % 74 % 0 % 1020,1 hPa - 0,0 km/h (0 Bft) - - - -4,4 C -2,9 C 0,0 km/h (0 Bft)
_ Max-Zeit 16:05 01:25 14:40 15:55 15:55 10:05 08:40 20:30 09:25 00:00 00:00 14:00 - - 08:25 13:50 15:55 11:15
Maximum _ 7,1 C 1,3 C 6,9 C 9,7 C 9,7 C 5,0 C 89 % 90 % 100 % 1026,3 hPa 0,0 l/m 9,2 km/h
W-SW (2 Bft)
- - 5 min 2,8 C 9,7 C 19,6 km/h
S (3 Bft)
Durchschnitt _ 2,7 C 1,0 C 2,9 C 3,4 C 3,3 C 0,7 C 82 % 82 % 14 % 1022,6 hPa #0,0 l/m 3,0 km/h (1 Bft) W-SW - #2:00 h -0,0 C 2,9 C 4,3 km/h (1 Bft)
2017 www.wetterstation-wechselburg.de